createdAt,value
2018-03-30T00:02:14.952Z,0.20
2018-03-30T00:04:43.910Z,0.30
2018-03-30T00:07:13.891Z,0.20
2018-03-30T00:09:54.539Z,0.20
2018-03-30T00:12:24.093Z,0.20
2018-03-30T00:14:54.728Z,0.20
2018-03-30T00:17:24.879Z,0.30
2018-03-30T00:19:55.526Z,0.30
2018-03-30T00:22:25.790Z,0.30
2018-03-30T00:24:56.555Z,0.40
2018-03-30T00:27:25.886Z,0.30
2018-03-30T00:29:56.586Z,0.40
2018-03-30T00:32:26.744Z,0.40
2018-03-30T00:34:57.473Z,0.30
2018-03-30T00:37:32.170Z,0.30
2018-03-30T00:40:02.876Z,0.30
2018-03-30T00:42:31.283Z,0.30
2018-03-30T00:44:59.982Z,0.30
2018-03-30T00:47:29.196Z,0.20
2018-03-30T00:49:58.843Z,0.40
2018-03-30T00:52:27.466Z,0.30
2018-03-30T00:54:55.992Z,0.40
2018-03-30T00:57:25.489Z,0.30
2018-03-30T00:59:54.407Z,0.30
2018-03-30T01:02:23.383Z,0.20
2018-03-30T01:04:51.905Z,0.30
2018-03-30T01:07:19.973Z,0.30
2018-03-30T01:09:48.824Z,0.30
2018-03-30T01:12:18.763Z,0.40
2018-03-30T01:14:47.159Z,0.40
2018-03-30T01:17:15.221Z,0.40
2018-03-30T01:19:43.348Z,0.40
2018-03-30T01:22:11.327Z,0.40
2018-03-30T01:24:40.024Z,0.30
2018-03-30T01:27:07.982Z,0.30
2018-03-30T01:29:35.911Z,0.30
2018-03-30T01:32:03.978Z,0.20
2018-03-30T01:34:31.881Z,0.20
2018-03-30T01:36:59.843Z,0.20
2018-03-30T01:39:27.745Z,0.10
2018-03-30T01:41:55.690Z,0.10
2018-03-30T01:44:23.588Z,0.10
2018-03-30T01:46:51.535Z,0.10
2018-03-30T01:49:20.245Z,0.10
2018-03-30T01:51:48.210Z,0.10
2018-03-30T01:54:16.099Z,0.20
2018-03-30T01:56:44.046Z,0.20
2018-03-30T01:59:11.950Z,0.30
2018-03-30T02:01:39.909Z,0.20
2018-03-30T02:04:07.833Z,0.20
2018-03-30T02:06:36.541Z,0.30
2018-03-30T02:09:04.544Z,0.30
2018-03-30T02:11:32.496Z,0.20
2018-03-30T02:14:00.399Z,0.20
2018-03-30T02:16:28.354Z,0.20
2018-03-30T02:18:56.250Z,0.30
2018-03-30T02:21:24.213Z,0.40
2018-03-30T02:23:52.107Z,0.40
2018-03-30T02:26:20.820Z,0.40
2018-03-30T02:28:48.722Z,0.30
2018-03-30T02:31:16.677Z,0.40
2018-03-30T02:33:44.574Z,0.30
2018-03-30T02:36:12.583Z,0.30
2018-03-30T02:38:41.246Z,0.40
2018-03-30T02:41:09.197Z,0.40
2018-03-30T02:43:37.104Z,0.40
2018-03-30T02:46:05.852Z,0.40
2018-03-30T02:48:33.736Z,0.40
2018-03-30T02:51:01.708Z,0.30
2018-03-30T02:53:29.613Z,0.30
2018-03-30T02:55:57.572Z,0.30
2018-03-30T02:58:26.248Z,0.20
2018-03-30T03:00:54.201Z,0.20
2018-03-30T03:03:22.143Z,0.10
2018-03-30T03:05:50.096Z,0.10
2018-03-30T03:08:17.999Z,0.00
2018-03-30T03:10:45.996Z,0.00
2018-03-30T03:13:13.887Z,-0.10
2018-03-30T03:15:42.620Z,0.00
2018-03-30T03:18:10.528Z,-0.10
2018-03-30T03:20:39.195Z,-0.20
2018-03-30T03:23:07.167Z,-0.20
2018-03-30T03:25:35.083Z,-0.20
2018-03-30T03:28:03.033Z,-0.20
2018-03-30T03:30:30.927Z,-0.20
2018-03-30T03:32:58.876Z,-0.20
2018-03-30T03:35:27.522Z,0.00
2018-03-30T03:37:55.455Z,-0.10
2018-03-30T03:40:26.450Z,0.10
2018-03-30T03:42:58.184Z,0.10
2018-03-30T03:45:29.747Z,0.00
2018-03-30T03:48:00.406Z,0.00
2018-03-30T03:50:31.379Z,0.10
2018-03-30T03:53:05.090Z,0.00
2018-03-30T03:55:35.395Z,0.00
2018-03-30T03:58:06.167Z,0.00
2018-03-30T04:00:37.213Z,-0.10
2018-03-30T04:03:08.232Z,-0.10
2018-03-30T04:05:38.801Z,0.00
2018-03-30T04:08:07.681Z,-0.10
2018-03-30T04:10:35.558Z,-0.10
2018-03-30T04:13:03.540Z,-0.10
2018-03-30T04:15:31.435Z,-0.10
2018-03-30T04:18:00.166Z,0.00
2018-03-30T04:20:28.068Z,-0.10
2018-03-30T04:22:55.968Z,0.00
2018-03-30T04:25:24.691Z,0.00
2018-03-30T04:27:52.578Z,0.00
2018-03-30T04:30:20.530Z,0.00
2018-03-30T04:32:48.431Z,0.00
2018-03-30T04:35:16.380Z,0.00
2018-03-30T04:37:44.274Z,0.00
2018-03-30T04:40:12.253Z,0.10
2018-03-30T04:42:40.157Z,0.20
2018-03-30T04:45:08.123Z,0.20
2018-03-30T04:47:36.014Z,0.20
2018-03-30T04:50:04.057Z,0.20
2018-03-30T04:52:32.719Z,0.20
2018-03-30T04:55:00.686Z,0.20
2018-03-30T04:57:28.617Z,0.30
2018-03-30T04:59:56.590Z,0.30
2018-03-30T05:02:24.493Z,0.20
2018-03-30T05:04:52.521Z,0.20
2018-03-30T05:07:20.424Z,0.30
2018-03-30T05:09:48.324Z,0.30
2018-03-30T05:12:17.094Z,0.30
2018-03-30T05:14:45.023Z,0.30
2018-03-30T05:17:13.749Z,0.40
2018-03-30T05:19:41.664Z,0.40
2018-03-30T05:22:09.659Z,0.30
2018-03-30T05:24:37.560Z,0.40
2018-03-30T05:27:05.502Z,0.40
2018-03-30T05:29:33.394Z,0.40
2018-03-30T05:32:01.358Z,0.40
2018-03-30T05:34:29.280Z,0.40
2018-03-30T05:36:57.243Z,0.40
2018-03-30T05:39:25.186Z,0.50
2018-03-30T05:41:53.905Z,0.60
2018-03-30T05:44:21.799Z,0.50
2018-03-30T05:46:49.772Z,0.60
2018-03-30T05:49:17.704Z,0.70
2018-03-30T05:51:49.905Z,0.90
2018-03-30T05:54:21.462Z,0.90
2018-03-30T05:56:52.912Z,0.90
2018-03-30T05:59:24.239Z,1.10
2018-03-30T06:01:55.522Z,1.30
2018-03-30T06:04:28.069Z,1.60
2018-03-30T06:07:00.931Z,1.80
2018-03-30T06:09:29.111Z,1.90
2018-03-30T06:12:01.194Z,2.10
2018-03-30T06:14:33.132Z,2.30
2018-03-30T06:17:04.743Z,2.30
2018-03-30T06:19:36.401Z,3.00
2018-03-30T06:22:08.673Z,3.40
2018-03-30T06:24:39.682Z,3.30
2018-03-30T06:27:11.806Z,3.70
2018-03-30T06:29:39.889Z,3.70
2018-03-30T06:34:41.687Z,3.90
2018-03-30T06:37:10.474Z,4.20
2018-03-30T06:39:38.393Z,4.20
2018-03-30T06:42:06.354Z,4.30
2018-03-30T06:44:34.292Z,4.50
2018-03-30T06:47:02.246Z,4.60
2018-03-30T06:49:30.969Z,5.40
2018-03-30T06:51:58.937Z,5.30
2018-03-30T06:54:26.840Z,5.90
2018-03-30T06:56:54.792Z,6.60
2018-03-30T06:59:22.698Z,7.00
2018-03-30T07:01:50.673Z,7.30
2018-03-30T07:04:18.578Z,7.60
2018-03-30T07:06:46.528Z,8.30
2018-03-30T07:09:15.205Z,9.00
2018-03-30T07:11:43.181Z,9.00
2018-03-30T07:14:11.971Z,9.80
2018-03-30T07:16:40.717Z,10.30
2018-03-30T07:19:08.652Z,10.30
2018-03-30T07:21:36.727Z,10.60
2018-03-30T07:24:04.643Z,10.50
2018-03-30T07:26:32.555Z,11.40
2018-03-30T07:29:00.513Z,12.10
2018-03-30T07:31:29.171Z,12.40
2018-03-30T07:33:57.116Z,12.30
2018-03-30T07:36:25.032Z,13.30
2018-03-30T07:38:53.754Z,13.70
2018-03-30T07:41:21.661Z,13.70
2018-03-30T07:43:49.600Z,14.10
2018-03-30T07:46:17.500Z,14.50
2018-03-30T07:48:45.458Z,15.00
2018-03-30T07:51:13.354Z,15.10
2018-03-30T07:53:41.298Z,15.70
2018-03-30T07:56:09.189Z,15.90
2018-03-30T07:58:37.130Z,15.80
2018-03-30T08:01:05.023Z,16.00
2018-03-30T08:03:33.003Z,17.00
2018-03-30T08:06:00.950Z,17.90
2018-03-30T08:08:28.894Z,16.40
2018-03-30T08:10:56.786Z,16.00
2018-03-30T08:13:24.740Z,16.60
2018-03-30T08:15:52.665Z,17.30
2018-03-30T08:18:21.346Z,16.70
2018-03-30T08:20:49.270Z,16.70
2018-03-30T08:23:17.166Z,14.70
2018-03-30T08:25:45.159Z,14.60
2018-03-30T08:28:13.826Z,16.50
2018-03-30T08:30:41.784Z,16.40
2018-03-30T08:33:09.679Z,17.90
2018-03-30T08:35:37.634Z,18.00
2018-03-30T08:38:05.539Z,18.20
2018-03-30T08:40:34.247Z,16.60
2018-03-30T08:43:02.156Z,16.60
2018-03-30T08:45:30.111Z,17.70
2018-03-30T08:47:58.009Z,17.80
2018-03-30T08:50:25.958Z,18.70
2018-03-30T08:52:53.857Z,18.70
2018-03-30T08:55:21.833Z,19.10
2018-03-30T08:57:50.509Z,20.20
2018-03-30T09:00:18.459Z,20.10
2018-03-30T09:02:46.354Z,20.80
2018-03-30T09:05:14.308Z,20.00
2018-03-30T09:07:42.214Z,19.80
2018-03-30T09:10:10.947Z,18.20
2018-03-30T09:12:38.868Z,18.20
2018-03-30T09:15:08.509Z,18.90
2018-03-30T09:17:36.461Z,18.80
2018-03-30T09:20:04.383Z,19.00
2018-03-30T09:22:32.342Z,18.10
2018-03-30T09:25:00.237Z,17.90
2018-03-30T09:27:28.187Z,18.20
2018-03-30T09:29:56.092Z,17.80
2018-03-30T09:32:24.871Z,18.20
2018-03-30T09:34:52.780Z,18.20
2018-03-30T09:37:20.728Z,19.10
2018-03-30T09:39:49.408Z,17.90
2018-03-30T09:42:18.126Z,17.10
2018-03-30T09:44:46.025Z,17.10
2018-03-30T09:47:13.972Z,17.00
2018-03-30T09:49:41.908Z,17.40
2018-03-30T09:52:13.757Z,17.30
2018-03-30T09:54:43.998Z,17.30
2018-03-30T09:57:16.035Z,16.90
2018-03-30T09:59:45.612Z,16.90
2018-03-30T10:02:16.661Z,17.20
2018-03-30T10:04:47.576Z,18.00
2018-03-30T10:07:25.588Z,18.20
2018-03-30T10:09:56.775Z,15.80
2018-03-30T10:12:27.629Z,15.80
2018-03-30T10:14:57.080Z,15.60
2018-03-30T10:17:28.113Z,16.30
2018-03-30T10:19:59.666Z,17.50
2018-03-30T10:22:32.120Z,17.50
2018-03-30T10:25:04.501Z,16.60
2018-03-30T10:27:34.481Z,17.30
2018-03-30T10:30:05.780Z,17.60
2018-03-30T10:32:36.917Z,18.00
2018-03-30T10:35:08.269Z,20.10
2018-03-30T10:37:40.403Z,20.20
2018-03-30T10:40:09.352Z,20.20
2018-03-30T10:42:37.564Z,18.50
2018-03-30T10:45:05.464Z,19.30
2018-03-30T10:47:34.239Z,20.20
2018-03-30T10:50:05.270Z,19.30
2018-03-30T10:52:35.918Z,19.30
2018-03-30T10:55:06.557Z,20.50
2018-03-30T10:57:37.210Z,19.30
2018-03-30T11:00:07.581Z,19.50
2018-03-30T11:02:38.600Z,19.30
2018-03-30T11:05:09.667Z,18.90
2018-03-30T11:07:41.090Z,17.50
2018-03-30T11:10:13.270Z,17.90
2018-03-30T11:12:44.465Z,19.70
2018-03-30T11:15:17.210Z,19.70
2018-03-30T11:17:49.207Z,18.50
2018-03-30T11:20:21.076Z,19.10
2018-03-30T11:22:52.098Z,19.10
2018-03-30T11:25:23.074Z,19.40
2018-03-30T11:27:55.084Z,18.90
2018-03-30T11:30:26.431Z,18.40
2018-03-30T11:32:57.510Z,17.50
2018-03-30T11:35:30.154Z,16.40
2018-03-30T11:38:00.811Z,15.70
2018-03-30T11:40:29.701Z,15.70
2018-03-30T11:42:57.679Z,15.70
2018-03-30T11:45:25.587Z,15.70
2018-03-30T11:47:53.552Z,15.30
2018-03-30T11:50:26.057Z,14.50
2018-03-30T11:52:57.032Z,14.60
2018-03-30T11:55:29.342Z,14.60
2018-03-30T11:57:59.788Z,14.20
2018-03-30T12:00:29.386Z,14.30
2018-03-30T12:03:00.721Z,14.60
2018-03-30T12:05:30.966Z,14.50
2018-03-30T12:08:02.035Z,15.20
2018-03-30T12:10:34.520Z,15.80
2018-03-30T12:13:05.801Z,14.70
2018-03-30T12:15:36.777Z,14.70
2018-03-30T12:18:08.477Z,14.80
2018-03-30T12:20:36.848Z,15.20
2018-03-30T12:23:08.654Z,15.00
2018-03-30T12:25:39.603Z,14.90
2018-03-30T12:28:10.951Z,14.70
2018-03-30T12:30:42.033Z,14.70
2018-03-30T12:33:12.178Z,14.50
2018-03-30T12:35:41.872Z,14.90
2018-03-30T12:38:12.205Z,14.90
2018-03-30T12:40:43.285Z,14.80
2018-03-30T12:43:14.569Z,14.70
2018-03-30T12:45:44.900Z,14.60
2018-03-30T12:48:15.797Z,14.80
2018-03-30T12:50:45.458Z,14.80
2018-03-30T12:53:14.855Z,15.00
2018-03-30T12:55:44.134Z,15.00
2018-03-30T12:58:14.926Z,14.60
2018-03-30T13:00:45.439Z,15.00
2018-03-30T13:03:15.030Z,14.90
2018-03-30T13:05:44.929Z,14.80
2018-03-30T13:08:15.731Z,14.90
2018-03-30T13:10:47.597Z,14.90
2018-03-30T13:13:29.679Z,14.90
2018-03-30T13:16:01.552Z,14.60
2018-03-30T13:18:32.819Z,14.60
2018-03-30T13:21:02.775Z,14.60
2018-03-30T13:23:33.855Z,13.90
2018-03-30T13:26:04.799Z,14.00
2018-03-30T13:28:34.669Z,13.90
2018-03-30T13:31:05.067Z,13.60
2018-03-30T13:33:35.515Z,13.80
2018-03-30T13:36:06.781Z,14.20
2018-03-30T13:38:35.651Z,13.90
2018-03-30T13:41:03.569Z,13.90
2018-03-30T13:43:31.527Z,14.20
2018-03-30T13:45:59.434Z,14.40
2018-03-30T13:48:29.393Z,14.10
2018-03-30T13:51:15.615Z,14.00
2018-03-30T13:53:49.966Z,14.60
2018-03-30T13:56:24.030Z,14.60
2018-03-30T14:02:09.062Z,15.20
2018-03-30T14:08:30.236Z,14.90
2018-03-30T14:11:01.390Z,15.00
2018-03-30T14:13:32.040Z,14.60
2018-03-30T14:16:16.609Z,14.40
2018-03-30T14:18:59.325Z,14.50
2018-03-30T14:21:36.449Z,14.20
2018-03-30T14:24:10.956Z,14.10
2018-03-30T14:26:45.956Z,14.10
2018-03-30T14:29:23.623Z,14.10
2018-03-30T14:32:04.707Z,14.10
2018-03-30T14:34:37.473Z,14.00
2018-03-30T14:37:22.248Z,14.00
2018-03-30T14:39:54.719Z,14.00
2018-03-30T14:42:26.623Z,14.10
2018-03-30T14:44:54.675Z,14.20
2018-03-30T14:47:24.248Z,14.00
2018-03-30T14:49:53.077Z,14.20
2018-03-30T14:52:41.407Z,14.20
2018-03-30T14:55:09.471Z,14.20
2018-03-30T14:57:42.872Z,14.10
2018-03-30T15:00:22.420Z,13.90
2018-03-30T15:02:57.918Z,13.60
2018-03-30T15:05:32.265Z,13.30
2018-03-30T15:08:01.918Z,13.40
2018-03-30T15:10:44.677Z,13.40
2018-03-30T15:13:37.331Z,13.10
2018-03-30T15:16:14.358Z,12.90
2018-03-30T15:18:45.192Z,13.00
2018-03-30T15:24:16.892Z,12.90
2018-03-30T15:26:46.629Z,12.80
2018-03-30T15:32:16.995Z,12.80
2018-03-30T15:34:47.897Z,12.80
2018-03-30T15:37:18.769Z,12.90
2018-03-30T15:39:47.752Z,12.80
2018-03-30T15:42:15.883Z,12.80
2018-03-30T15:44:45.926Z,12.80
2018-03-30T15:47:13.989Z,12.80
2018-03-30T15:49:43.718Z,12.80
2018-03-30T15:52:12.636Z,12.70
2018-03-30T15:54:41.419Z,12.70
2018-03-30T15:57:10.049Z,12.70
2018-03-30T15:59:38.052Z,12.70
2018-03-30T16:02:06.104Z,12.60
2018-03-30T16:04:34.442Z,12.70
2018-03-30T16:07:03.224Z,12.80
2018-03-30T16:09:38.826Z,12.80
2018-03-30T16:12:06.839Z,12.80
2018-03-30T16:14:38.260Z,12.70
2018-03-30T16:17:12.415Z,12.60
2018-03-30T16:19:42.211Z,12.60
2018-03-30T16:22:11.833Z,12.60
2018-03-30T16:24:41.976Z,12.60
2018-03-30T16:27:11.580Z,12.60
2018-03-30T16:29:41.463Z,12.60
2018-03-30T16:32:11.271Z,12.60
2018-03-30T16:34:39.304Z,12.70
2018-03-30T16:37:09.743Z,12.60
2018-03-30T16:39:38.512Z,12.60
2018-03-30T16:42:06.856Z,12.40
2018-03-30T16:44:35.405Z,12.30
2018-03-30T16:47:03.431Z,12.20
2018-03-30T16:49:33.636Z,12.00
2018-03-30T16:52:04.139Z,11.90
2018-03-30T16:54:35.142Z,11.80
2018-03-30T16:57:04.416Z,11.80
2018-03-30T16:59:37.178Z,11.40
2018-03-30T17:02:07.631Z,11.40
2018-03-30T17:04:35.255Z,11.20
2018-03-30T17:07:04.254Z,11.00
2018-03-30T17:09:34.350Z,10.80
2018-03-30T17:12:04.172Z,10.50
2018-03-30T17:14:33.821Z,10.50
2018-03-30T17:17:04.338Z,10.10
2018-03-30T17:19:34.364Z,10.10
2018-03-30T17:22:03.958Z,9.80
2018-03-30T17:24:33.937Z,9.80
2018-03-30T17:27:05.102Z,9.60
2018-03-30T17:29:34.694Z,9.60
2018-03-30T17:32:04.543Z,9.50
2018-03-30T17:34:34.782Z,9.50
2018-03-30T17:37:03.326Z,9.50
2018-03-30T17:39:33.808Z,9.50
2018-03-30T17:42:03.673Z,9.40
2018-03-30T17:44:33.331Z,9.40
2018-03-30T17:47:03.345Z,9.30
2018-03-30T17:49:33.455Z,9.30
2018-03-30T17:52:04.005Z,9.20
2018-03-30T17:54:33.714Z,9.20
2018-03-30T17:57:02.621Z,9.20
2018-03-30T17:59:32.582Z,9.20
2018-03-30T18:02:05.300Z,9.20
2018-03-30T18:04:35.523Z,9.20
2018-03-30T18:07:05.415Z,9.20
2018-03-30T18:09:35.686Z,9.20
2018-03-30T18:12:06.352Z,9.20
2018-03-30T18:14:35.584Z,9.10
2018-03-30T18:17:05.512Z,9.20
2018-03-30T18:19:36.257Z,9.10
2018-03-30T18:22:07.018Z,9.20
2018-03-30T18:24:36.486Z,9.10
2018-03-30T18:27:06.404Z,9.10
2018-03-30T18:29:35.698Z,9.00
2018-03-30T18:32:04.221Z,9.00
2018-03-30T18:34:34.662Z,9.00
2018-03-30T18:37:04.768Z,9.00
2018-03-30T18:39:34.357Z,9.00
2018-03-30T18:42:04.704Z,8.90
2018-03-30T18:44:35.018Z,8.90
2018-03-30T18:47:05.975Z,8.80
2018-03-30T18:49:36.042Z,8.80
2018-03-30T18:52:05.322Z,8.80
2018-03-30T18:54:35.586Z,8.80
2018-03-30T18:57:05.834Z,8.80
2018-03-30T18:59:35.039Z,8.80
2018-03-30T19:02:04.645Z,8.80
2018-03-30T19:04:34.462Z,8.70
2018-03-30T19:07:02.726Z,8.60
2018-03-30T19:09:33.678Z,8.60
2018-03-30T19:12:02.140Z,8.60
2018-03-30T19:14:32.088Z,8.60
2018-03-30T19:17:01.446Z,8.60
2018-03-30T19:19:30.852Z,8.60
2018-03-30T19:22:01.074Z,8.50
2018-03-30T19:24:31.791Z,8.60
2018-03-30T19:27:01.406Z,8.50
2018-03-30T19:29:31.338Z,8.50
2018-03-30T19:32:01.455Z,8.40
2018-03-30T19:34:30.949Z,8.40
2018-03-30T19:37:00.454Z,8.40
2018-03-30T19:39:29.845Z,8.40
2018-03-30T19:42:00.080Z,8.40
2018-03-30T19:44:30.129Z,8.40
2018-03-30T19:46:59.734Z,8.40
2018-03-30T19:49:30.976Z,8.40
2018-03-30T19:52:01.447Z,8.30
2018-03-30T19:54:31.475Z,8.30
2018-03-30T19:57:02.066Z,8.20
2018-03-30T19:59:29.556Z,8.20
2018-03-30T20:01:56.934Z,8.10
2018-03-30T20:04:26.385Z,8.20
2018-03-30T20:06:57.173Z,8.30
2018-03-30T20:09:27.008Z,8.20
2018-03-30T20:11:58.519Z,8.30
2018-03-30T20:14:28.387Z,8.30
2018-03-30T20:16:58.112Z,8.20
2018-03-30T20:19:27.812Z,8.20
2018-03-30T20:21:57.973Z,8.20
2018-03-30T20:24:26.430Z,8.20
2018-03-30T20:26:57.268Z,8.10
2018-03-30T20:29:27.918Z,8.00
2018-03-30T20:31:58.906Z,8.10
2018-03-30T20:34:28.799Z,8.00
2018-03-30T20:36:58.522Z,8.00
2018-03-30T20:39:27.936Z,8.00
2018-03-30T20:41:57.566Z,8.00
2018-03-30T20:44:27.583Z,7.90
2018-03-30T20:46:57.417Z,7.80
2018-03-30T20:49:27.867Z,7.80
2018-03-30T20:51:57.647Z,7.70
2018-03-30T20:54:27.244Z,7.60
2018-03-30T20:56:56.999Z,7.60
2018-03-30T20:59:27.739Z,7.50
2018-03-30T21:01:57.119Z,7.50
2018-03-30T21:04:26.806Z,7.50
2018-03-30T21:06:56.755Z,7.50
2018-03-30T21:09:26.855Z,7.50
2018-03-30T21:11:57.773Z,7.60
2018-03-30T21:14:26.850Z,7.60
2018-03-30T21:16:56.623Z,7.50
2018-03-30T21:19:26.603Z,7.50
2018-03-30T21:21:56.081Z,7.30
2018-03-30T21:24:26.913Z,7.30
2018-03-30T21:26:58.132Z,7.30
2018-03-30T21:29:28.529Z,7.30
2018-03-30T21:31:58.800Z,7.30
2018-03-30T21:34:28.689Z,7.30
2018-03-30T21:36:59.209Z,7.30
2018-03-30T21:39:29.949Z,7.30
2018-03-30T21:41:59.442Z,7.20
2018-03-30T21:44:29.468Z,7.20
2018-03-30T21:46:57.802Z,7.20
2018-03-30T21:49:25.183Z,7.20
2018-03-30T21:51:54.322Z,7.20
2018-03-30T21:54:24.598Z,7.10
2018-03-30T21:56:54.058Z,7.20
2018-03-30T21:59:23.678Z,7.10
2018-03-30T22:01:54.402Z,7.10
2018-03-30T22:04:25.990Z,7.10
2018-03-30T22:06:56.579Z,7.10
2018-03-30T22:09:26.245Z,7.00
2018-03-30T22:11:55.807Z,7.00
2018-03-30T22:14:26.869Z,6.90
2018-03-30T22:16:57.213Z,6.80
2018-03-30T22:19:27.534Z,6.70
2018-03-30T22:21:58.139Z,6.40
2018-03-30T22:24:27.995Z,6.40
2018-03-30T22:26:58.469Z,6.30
2018-03-30T22:29:27.846Z,6.20
2018-03-30T22:31:57.468Z,6.10
2018-03-30T22:34:26.303Z,6.10
2018-03-30T22:36:55.764Z,6.10
2018-03-30T22:39:26.397Z,6.00
2018-03-30T22:41:53.908Z,5.90
2018-03-30T22:44:21.290Z,5.80
2018-03-30T22:46:48.633Z,5.70
2018-03-30T22:49:16.023Z,5.70
2018-03-30T22:51:44.120Z,5.60
2018-03-30T22:54:11.506Z,5.60
2018-03-30T22:56:38.836Z,5.50
2018-03-30T22:59:06.212Z,5.40
2018-03-30T23:01:33.543Z,5.30
2018-03-30T23:04:00.923Z,5.20
2018-03-30T23:06:29.072Z,4.90
2018-03-30T23:11:32.249Z,4.70
2018-03-30T23:14:00.272Z,4.70
2018-03-30T23:16:27.605Z,4.60
2018-03-30T23:18:55.455Z,4.60
2018-03-30T23:21:23.663Z,4.60
2018-03-30T23:23:51.542Z,4.50
2018-03-30T23:26:19.054Z,4.50
2018-03-30T23:28:46.964Z,4.40
2018-03-30T23:31:16.171Z,4.40
2018-03-30T23:33:45.113Z,4.40
2018-03-30T23:36:12.934Z,4.40
2018-03-30T23:38:41.190Z,4.30
2018-03-30T23:41:09.219Z,4.30
2018-03-30T23:43:37.223Z,4.30
2018-03-30T23:46:04.963Z,4.20
2018-03-30T23:48:33.077Z,4.20
2018-03-30T23:51:00.493Z,4.20
2018-03-30T23:53:27.819Z,4.20
2018-03-30T23:55:57.768Z,4.20
2018-03-30T23:58:25.569Z,4.30
